sensor_id;sensor_type;location;lat;lon;timestamp;temperature;humidity
7814;DHT22;3952;48.364;16.022;2023-06-26T00:01:10;16.90;99.90
7814;DHT22;3952;48.364;16.022;2023-06-26T00:03:37;16.80;99.90
7814;DHT22;3952;48.364;16.022;2023-06-26T00:06:04;16.70;99.90
7814;DHT22;3952;48.364;16.022;2023-06-26T00:08:33;16.70;99.90
7814;DHT22;3952;48.364;16.022;2023-06-26T00:11:00;16.60;99.90
7814;DHT22;3952;48.364;16.022;2023-06-26T00:13:27;16.60;99.90
7814;DHT22;3952;48.364;16.022;2023-06-26T00:15:54;16.60;99.90
7814;DHT22;3952;48.364;16.022;2023-06-26T00:18:22;16.60;99.90
7814;DHT22;3952;48.364;16.022;2023-06-26T00:20:49;16.50;99.90
7814;DHT22;3952;48.364;16.022;2023-06-26T00:23:17;16.50;99.90
7814;DHT22;3952;48.364;16.022;2023-06-26T00:25:46;16.50;99.90
7814;DHT22;3952;48.364;16.022;2023-06-26T00:28:13;16.50;99.90
7814;DHT22;3952;48.364;16.022;2023-06-26T00:30:40;16.40;99.90
7814;DHT22;3952;48.364;16.022;2023-06-26T00:33:08;16.40;99.90
7814;DHT22;3952;48.364;16.022;2023-06-26T00:35:35;16.40;99.90
7814;DHT22;3952;48.364;16.022;2023-06-26T00:38:02;16.40;99.90
7814;DHT22;3952;48.364;16.022;2023-06-26T00:40:29;16.40;99.90
7814;DHT22;3952;48.364;16.022;2023-06-26T00:42:58;16.40;99.90
7814;DHT22;3952;48.364;16.022;2023-06-26T00:45:25;16.30;99.90
7814;DHT22;3952;48.364;16.022;2023-06-26T00:47:52;16.30;99.90
7814;DHT22;3952;48.364;16.022;2023-06-26T00:50:20;16.20;99.90
7814;DHT22;3952;48.364;16.022;2023-06-26T00:52:48;16.20;99.90
7814;DHT22;3952;48.364;16.022;2023-06-26T00:55:15;16.20;99.90
7814;DHT22;3952;48.364;16.022;2023-06-26T00:57:42;16.10;99.90
7814;DHT22;3952;48.364;16.022;2023-06-26T01:00:14;16.10;99.90
7814;DHT22;3952;48.364;16.022;2023-06-26T01:02:42;16.00;99.90
7814;DHT22;3952;48.364;16.022;2023-06-26T01:05:09;15.90;99.90
7814;DHT22;3952;48.364;16.022;2023-06-26T01:07:39;15.90;99.90
7814;DHT22;3952;48.364;16.022;2023-06-26T01:10:07;15.90;99.90
7814;DHT22;3952;48.364;16.022;2023-06-26T01:12:35;15.90;99.90
7814;DHT22;3952;48.364;16.022;2023-06-26T01:15:05;15.90;99.90
7814;DHT22;3952;48.364;16.022;2023-06-26T01:17:36;15.90;99.90
7814;DHT22;3952;48.364;16.022;2023-06-26T01:20:06;15.90;99.90
7814;DHT22;3952;48.364;16.022;2023-06-26T01:22:38;15.80;99.90
7814;DHT22;3952;48.364;16.022;2023-06-26T01:25:18;15.80;99.90
7814;DHT22;3952;48.364;16.022;2023-06-26T01:27:50;15.80;99.90
7814;DHT22;3952;48.364;16.022;2023-06-26T01:30:18;15.80;99.90
7814;DHT22;3952;48.364;16.022;2023-06-26T01:32:46;15.80;99.90
7814;DHT22;3952;48.364;16.022;2023-06-26T01:35:15;15.80;99.90
7814;DHT22;3952;48.364;16.022;2023-06-26T01:37:42;15.80;99.90
7814;DHT22;3952;48.364;16.022;2023-06-26T01:40:10;15.80;99.90
7814;DHT22;3952;48.364;16.022;2023-06-26T01:42:37;15.80;99.90
7814;DHT22;3952;48.364;16.022;2023-06-26T01:45:12;15.70;99.90
7814;DHT22;3952;48.364;16.022;2023-06-26T01:47:45;15.60;99.90
7814;DHT22;3952;48.364;16.022;2023-06-26T01:50:18;15.50;99.90
7814;DHT22;3952;48.364;16.022;2023-06-26T01:52:52;15.40;99.90
7814;DHT22;3952;48.364;16.022;2023-06-26T01:55:26;15.40;99.90
7814;DHT22;3952;48.364;16.022;2023-06-26T01:57:56;15.30;99.90
7814;DHT22;3952;48.364;16.022;2023-06-26T02:00:26;15.40;99.90
7814;DHT22;3952;48.364;16.022;2023-06-26T02:02:54;15.30;99.90
7814;DHT22;3952;48.364;16.022;2023-06-26T02:05:22;15.30;99.90
7814;DHT22;3952;48.364;16.022;2023-06-26T02:07:49;15.30;99.90
7814;DHT22;3952;48.364;16.022;2023-06-26T02:10:17;15.30;99.90
7814;DHT22;3952;48.364;16.022;2023-06-26T02:12:44;15.30;99.90
7814;DHT22;3952;48.364;16.022;2023-06-26T02:15:11;15.30;99.90
7814;DHT22;3952;48.364;16.022;2023-06-26T02:17:40;15.30;99.90
7814;DHT22;3952;48.364;16.022;2023-06-26T02:20:08;15.30;99.90
7814;DHT22;3952;48.364;16.022;2023-06-26T02:22:36;15.30;99.90
7814;DHT22;3952;48.364;16.022;2023-06-26T02:25:04;15.30;99.90
7814;DHT22;3952;48.364;16.022;2023-06-26T02:27:31;15.30;99.90
7814;DHT22;3952;48.364;16.022;2023-06-26T02:29:58;15.30;99.90
7814;DHT22;3952;48.364;16.022;2023-06-26T02:32:25;15.30;99.90
7814;DHT22;3952;48.364;16.022;2023-06-26T02:34:54;15.20;99.90
7814;DHT22;3952;48.364;16.022;2023-06-26T02:37:21;15.20;99.90
7814;DHT22;3952;48.364;16.022;2023-06-26T02:39:49;15.20;99.90
7814;DHT22;3952;48.364;16.022;2023-06-26T02:42:16;15.20;99.90
7814;DHT22;3952;48.364;16.022;2023-06-26T02:44:43;15.10;99.90
7814;DHT22;3952;48.364;16.022;2023-06-26T02:47:10;15.10;99.90
7814;DHT22;3952;48.364;16.022;2023-06-26T02:49:37;15.10;99.90
7814;DHT22;3952;48.364;16.022;2023-06-26T02:52:06;15.00;99.90
7814;DHT22;3952;48.364;16.022;2023-06-26T02:54:33;15.00;99.90
7814;DHT22;3952;48.364;16.022;2023-06-26T02:57:00;15.00;99.90
7814;DHT22;3952;48.364;16.022;2023-06-26T02:59:28;15.00;99.90
7814;DHT22;3952;48.364;16.022;2023-06-26T03:01:55;14.90;99.90
7814;DHT22;3952;48.364;16.022;2023-06-26T03:04:23;14.90;99.90
7814;DHT22;3952;48.364;16.022;2023-06-26T03:06:50;14.90;99.90
7814;DHT22;3952;48.364;16.022;2023-06-26T03:09:18;14.90;99.90
7814;DHT22;3952;48.364;16.022;2023-06-26T03:11:46;14.90;99.90
7814;DHT22;3952;48.364;16.022;2023-06-26T03:14:13;14.90;99.90
7814;DHT22;3952;48.364;16.022;2023-06-26T03:16:40;14.90;99.90
7814;DHT22;3952;48.364;16.022;2023-06-26T03:19:07;14.90;99.90
7814;DHT22;3952;48.364;16.022;2023-06-26T03:21:35;14.80;99.90
7814;DHT22;3952;48.364;16.022;2023-06-26T03:24:02;14.90;99.90
7814;DHT22;3952;48.364;16.022;2023-06-26T03:26:30;14.90;99.90
7814;DHT22;3952;48.364;16.022;2023-06-26T03:28:58;14.90;99.90
7814;DHT22;3952;48.364;16.022;2023-06-26T03:31:25;14.90;99.90
7814;DHT22;3952;48.364;16.022;2023-06-26T03:33:52;14.90;99.90
7814;DHT22;3952;48.364;16.022;2023-06-26T03:36:19;14.90;99.90
7814;DHT22;3952;48.364;16.022;2023-06-26T03:38:47;15.00;99.90
7814;DHT22;3952;48.364;16.022;2023-06-26T03:41:14;14.90;99.90
7814;DHT22;3952;48.364;16.022;2023-06-26T03:43:42;14.90;99.90
7814;DHT22;3952;48.364;16.022;2023-06-26T03:46:09;14.90;99.90
7814;DHT22;3952;48.364;16.022;2023-06-26T03:48:37;14.90;99.90
7814;DHT22;3952;48.364;16.022;2023-06-26T03:51:04;14.90;99.90
7814;DHT22;3952;48.364;16.022;2023-06-26T03:53:32;15.00;99.90
7814;DHT22;3952;48.364;16.022;2023-06-26T03:55:59;15.00;99.90
7814;DHT22;3952;48.364;16.022;2023-06-26T03:58:26;15.00;99.90
7814;DHT22;3952;48.364;16.022;2023-06-26T04:00:55;15.00;99.90
7814;DHT22;3952;48.364;16.022;2023-06-26T04:03:23;15.10;99.90
7814;DHT22;3952;48.364;16.022;2023-06-26T04:05:50;15.10;99.90
7814;DHT22;3952;48.364;16.022;2023-06-26T04:08:17;15.20;99.90
7814;DHT22;3952;48.364;16.022;2023-06-26T04:10:46;15.20;99.90
7814;DHT22;3952;48.364;16.022;2023-06-26T04:13:14;15.20;99.90
7814;DHT22;3952;48.364;16.022;2023-06-26T04:15:41;15.30;99.90
7814;DHT22;3952;48.364;16.022;2023-06-26T04:18:10;15.30;99.90
7814;DHT22;3952;48.364;16.022;2023-06-26T04:20:39;15.40;99.90
7814;DHT22;3952;48.364;16.022;2023-06-26T04:23:10;15.50;99.90
7814;DHT22;3952;48.364;16.022;2023-06-26T04:25:38;15.60;99.90
7814;DHT22;3952;48.364;16.022;2023-06-26T04:28:05;15.80;99.90
7814;DHT22;3952;48.364;16.022;2023-06-26T04:30:32;16.00;99.90
7814;DHT22;3952;48.364;16.022;2023-06-26T04:33:00;16.10;99.90
7814;DHT22;3952;48.364;16.022;2023-06-26T04:35:29;16.10;99.90
7814;DHT22;3952;48.364;16.022;2023-06-26T04:37:56;16.20;99.90
7814;DHT22;3952;48.364;16.022;2023-06-26T04:40:23;16.30;99.90
7814;DHT22;3952;48.364;16.022;2023-06-26T04:42:50;16.30;99.90
7814;DHT22;3952;48.364;16.022;2023-06-26T04:45:17;16.40;99.90
7814;DHT22;3952;48.364;16.022;2023-06-26T04:47:44;16.40;99.90
7814;DHT22;3952;48.364;16.022;2023-06-26T04:50:12;16.50;99.90
7814;DHT22;3952;48.364;16.022;2023-06-26T04:52:40;16.60;99.90
7814;DHT22;3952;48.364;16.022;2023-06-26T04:55:07;16.60;99.90
7814;DHT22;3952;48.364;16.022;2023-06-26T04:57:35;16.60;99.90
7814;DHT22;3952;48.364;16.022;2023-06-26T05:00:02;16.70;99.90
7814;DHT22;3952;48.364;16.022;2023-06-26T05:02:33;16.80;99.90
7814;DHT22;3952;48.364;16.022;2023-06-26T05:05:00;16.80;99.90
7814;DHT22;3952;48.364;16.022;2023-06-26T05:07:27;16.90;99.90
7814;DHT22;3952;48.364;16.022;2023-06-26T05:09:56;17.00;99.90
7814;DHT22;3952;48.364;16.022;2023-06-26T05:12:23;17.10;99.90
7814;DHT22;3952;48.364;16.022;2023-06-26T05:14:50;17.10;99.90
7814;DHT22;3952;48.364;16.022;2023-06-26T05:17:18;17.20;99.90
7814;DHT22;3952;48.364;16.022;2023-06-26T05:19:45;17.30;99.90
7814;DHT22;3952;48.364;16.022;2023-06-26T05:22:13;17.30;99.90
7814;DHT22;3952;48.364;16.022;2023-06-26T05:24:40;17.40;99.90
7814;DHT22;3952;48.364;16.022;2023-06-26T05:27:12;17.50;99.90
7814;DHT22;3952;48.364;16.022;2023-06-26T05:29:47;17.50;99.90
7814;DHT22;3952;48.364;16.022;2023-06-26T05:32:17;17.60;99.90
7814;DHT22;3952;48.364;16.022;2023-06-26T05:34:45;17.70;99.90
7814;DHT22;3952;48.364;16.022;2023-06-26T05:37:20;17.70;99.90
7814;DHT22;3952;48.364;16.022;2023-06-26T05:39:48;17.80;99.90
7814;DHT22;3952;48.364;16.022;2023-06-26T05:42:18;17.90;99.90
7814;DHT22;3952;48.364;16.022;2023-06-26T05:44:45;18.00;99.90
7814;DHT22;3952;48.364;16.022;2023-06-26T05:47:12;18.10;99.90
7814;DHT22;3952;48.364;16.022;2023-06-26T05:49:39;18.10;99.90
7814;DHT22;3952;48.364;16.022;2023-06-26T05:52:08;18.20;99.90
7814;DHT22;3952;48.364;16.022;2023-06-26T05:54:36;18.30;99.90
7814;DHT22;3952;48.364;16.022;2023-06-26T05:57:05;18.40;99.90
7814;DHT22;3952;48.364;16.022;2023-06-26T05:59:37;18.50;99.90
7814;DHT22;3952;48.364;16.022;2023-06-26T06:02:06;18.60;99.90
7814;DHT22;3952;48.364;16.022;2023-06-26T06:04:33;18.70;99.90
7814;DHT22;3952;48.364;16.022;2023-06-26T06:07:03;18.80;99.90
7814;DHT22;3952;48.364;16.022;2023-06-26T06:09:30;18.90;99.90
7814;DHT22;3952;48.364;16.022;2023-06-26T06:11:58;19.00;99.90
7814;DHT22;3952;48.364;16.022;2023-06-26T06:14:27;19.10;99.90
7814;DHT22;3952;48.364;16.022;2023-06-26T06:16:55;19.20;99.90
7814;DHT22;3952;48.364;16.022;2023-06-26T06:19:22;19.30;99.90
7814;DHT22;3952;48.364;16.022;2023-06-26T06:21:50;19.40;99.90
7814;DHT22;3952;48.364;16.022;2023-06-26T06:24:17;19.50;99.90
7814;DHT22;3952;48.364;16.022;2023-06-26T06:26:44;19.70;99.90
7814;DHT22;3952;48.364;16.022;2023-06-26T06:29:11;19.80;99.90
7814;DHT22;3952;48.364;16.022;2023-06-26T06:31:39;19.90;99.90
7814;DHT22;3952;48.364;16.022;2023-06-26T06:34:07;20.00;99.90
7814;DHT22;3952;48.364;16.022;2023-06-26T06:36:34;20.10;99.90
7814;DHT22;3952;48.364;16.022;2023-06-26T06:39:01;20.20;99.90
7814;DHT22;3952;48.364;16.022;2023-06-26T06:41:29;20.30;99.90
7814;DHT22;3952;48.364;16.022;2023-06-26T06:43:56;20.50;99.90
7814;DHT22;3952;48.364;16.022;2023-06-26T06:46:23;20.60;99.90
7814;DHT22;3952;48.364;16.022;2023-06-26T06:48:52;20.70;99.90
7814;DHT22;3952;48.364;16.022;2023-06-26T06:51:21;20.90;99.90
7814;DHT22;3952;48.364;16.022;2023-06-26T06:53:48;21.00;99.90
7814;DHT22;3952;48.364;16.022;2023-06-26T06:56:15;21.10;99.90
7814;DHT22;3952;48.364;16.022;2023-06-26T06:58:43;21.20;99.90
7814;DHT22;3952;48.364;16.022;2023-06-26T07:01:11;21.30;99.90
7814;DHT22;3952;48.364;16.022;2023-06-26T07:03:39;21.40;99.90
7814;DHT22;3952;48.364;16.022;2023-06-26T07:06:06;21.50;99.90
7814;DHT22;3952;48.364;16.022;2023-06-26T07:08:35;21.60;99.90
7814;DHT22;3952;48.364;16.022;2023-06-26T07:11:02;21.70;99.90
7814;DHT22;3952;48.364;16.022;2023-06-26T07:13:29;21.90;99.90
7814;DHT22;3952;48.364;16.022;2023-06-26T07:15:56;22.00;99.90
7814;DHT22;3952;48.364;16.022;2023-06-26T07:18:23;22.10;99.90
7814;DHT22;3952;48.364;16.022;2023-06-26T07:20:51;22.30;99.90
7814;DHT22;3952;48.364;16.022;2023-06-26T07:23:18;22.40;99.90
7814;DHT22;3952;48.364;16.022;2023-06-26T07:25:46;22.50;99.90
7814;DHT22;3952;48.364;16.022;2023-06-26T07:28:14;22.60;99.90
7814;DHT22;3952;48.364;16.022;2023-06-26T07:30:41;22.70;99.90
7814;DHT22;3952;48.364;16.022;2023-06-26T07:33:08;22.70;99.90
7814;DHT22;3952;48.364;16.022;2023-06-26T07:35:35;22.80;99.90
7814;DHT22;3952;48.364;16.022;2023-06-26T07:38:02;22.90;99.90
7814;DHT22;3952;48.364;16.022;2023-06-26T07:40:30;23.00;99.90
7814;DHT22;3952;48.364;16.022;2023-06-26T07:42:58;23.10;99.90
7814;DHT22;3952;48.364;16.022;2023-06-26T07:45:25;23.10;99.90
7814;DHT22;3952;48.364;16.022;2023-06-26T07:47:53;23.30;99.90
7814;DHT22;3952;48.364;16.022;2023-06-26T07:50:20;23.40;99.90
7814;DHT22;3952;48.364;16.022;2023-06-26T07:52:49;23.50;99.90
7814;DHT22;3952;48.364;16.022;2023-06-26T07:55:18;23.50;99.90
7814;DHT22;3952;48.364;16.022;2023-06-26T07:57:45;23.60;99.90
7814;DHT22;3952;48.364;16.022;2023-06-26T08:00:15;23.70;99.90
7814;DHT22;3952;48.364;16.022;2023-06-26T08:02:42;23.80;99.90
7814;DHT22;3952;48.364;16.022;2023-06-26T08:05:09;24.00;99.90
7814;DHT22;3952;48.364;16.022;2023-06-26T08:07:36;24.10;99.90
7814;DHT22;3952;48.364;16.022;2023-06-26T08:10:04;24.20;99.90
7814;DHT22;3952;48.364;16.022;2023-06-26T08:12:32;24.30;99.90
7814;DHT22;3952;48.364;16.022;2023-06-26T08:15:00;24.40;99.90
7814;DHT22;3952;48.364;16.022;2023-06-26T08:17:30;24.50;99.90
7814;DHT22;3952;48.364;16.022;2023-06-26T08:19:57;24.60;99.90
7814;DHT22;3952;48.364;16.022;2023-06-26T08:22:24;24.80;99.90
7814;DHT22;3952;48.364;16.022;2023-06-26T08:24:51;24.80;99.90
7814;DHT22;3952;48.364;16.022;2023-06-26T08:27:18;25.00;99.90
7814;DHT22;3952;48.364;16.022;2023-06-26T08:29:45;25.00;99.90
7814;DHT22;3952;48.364;16.022;2023-06-26T08:32:13;25.00;99.90
7814;DHT22;3952;48.364;16.022;2023-06-26T08:34:42;25.10;99.90
7814;DHT22;3952;48.364;16.022;2023-06-26T08:37:09;25.20;99.90
7814;DHT22;3952;48.364;16.022;2023-06-26T08:39:36;25.30;99.90
7814;DHT22;3952;48.364;16.022;2023-06-26T08:42:04;25.40;99.90
7814;DHT22;3952;48.364;16.022;2023-06-26T08:44:31;25.40;99.90
7814;DHT22;3952;48.364;16.022;2023-06-26T08:47:00;25.50;99.90
7814;DHT22;3952;48.364;16.022;2023-06-26T08:49:34;25.70;99.90
7814;DHT22;3952;48.364;16.022;2023-06-26T08:52:10;25.70;99.90
7814;DHT22;3952;48.364;16.022;2023-06-26T08:54:42;25.90;99.90
7814;DHT22;3952;48.364;16.022;2023-06-26T08:57:11;25.90;99.90
7814;DHT22;3952;48.364;16.022;2023-06-26T08:59:39;26.00;99.90
7814;DHT22;3952;48.364;16.022;2023-06-26T09:02:07;26.10;99.90
7814;DHT22;3952;48.364;16.022;2023-06-26T09:04:35;26.20;99.90
7814;DHT22;3952;48.364;16.022;2023-06-26T09:07:02;26.20;99.90
7814;DHT22;3952;48.364;16.022;2023-06-26T09:09:31;26.30;99.90
7814;DHT22;3952;48.364;16.022;2023-06-26T09:11:58;26.20;99.90
7814;DHT22;3952;48.364;16.022;2023-06-26T09:14:25;26.30;99.90
7814;DHT22;3952;48.364;16.022;2023-06-26T09:16:53;26.40;99.90
7814;DHT22;3952;48.364;16.022;2023-06-26T09:19:20;26.40;99.90
7814;DHT22;3952;48.364;16.022;2023-06-26T09:21:49;26.50;99.90
7814;DHT22;3952;48.364;16.022;2023-06-26T09:24:17;26.60;99.90
7814;DHT22;3952;48.364;16.022;2023-06-26T09:26:46;26.60;99.90
7814;DHT22;3952;48.364;16.022;2023-06-26T09:29:14;26.60;99.90
7814;DHT22;3952;48.364;16.022;2023-06-26T09:31:42;26.60;99.90
7814;DHT22;3952;48.364;16.022;2023-06-26T09:34:10;26.60;99.90
7814;DHT22;3952;48.364;16.022;2023-06-26T09:36:37;26.60;99.90
7814;DHT22;3952;48.364;16.022;2023-06-26T09:39:08;26.70;99.90
7814;DHT22;3952;48.364;16.022;2023-06-26T09:41:38;26.80;99.90
7814;DHT22;3952;48.364;16.022;2023-06-26T09:44:06;27.00;99.90
7814;DHT22;3952;48.364;16.022;2023-06-26T09:46:34;27.00;99.90
7814;DHT22;3952;48.364;16.022;2023-06-26T09:49:04;27.00;99.90
7814;DHT22;3952;48.364;16.022;2023-06-26T09:51:33;27.10;99.90
7814;DHT22;3952;48.364;16.022;2023-06-26T09:54:00;27.20;99.90
7814;DHT22;3952;48.364;16.022;2023-06-26T09:56:28;27.30;99.90
7814;DHT22;3952;48.364;16.022;2023-06-26T09:58:57;27.30;99.90
7814;DHT22;3952;48.364;16.022;2023-06-26T10:01:27;27.30;99.90
7814;DHT22;3952;48.364;16.022;2023-06-26T10:03:54;27.40;99.90
7814;DHT22;3952;48.364;16.022;2023-06-26T10:06:26;27.60;99.90
7814;DHT22;3952;48.364;16.022;2023-06-26T10:08:55;27.70;99.90
7814;DHT22;3952;48.364;16.022;2023-06-26T10:11:25;27.80;99.90
7814;DHT22;3952;48.364;16.022;2023-06-26T10:13:53;27.90;99.90
7814;DHT22;3952;48.364;16.022;2023-06-26T10:16:25;28.00;99.90
7814;DHT22;3952;48.364;16.022;2023-06-26T10:18:58;28.00;99.90
7814;DHT22;3952;48.364;16.022;2023-06-26T10:21:29;28.10;99.90
7814;DHT22;3952;48.364;16.022;2023-06-26T10:23:58;28.00;99.90
7814;DHT22;3952;48.364;16.022;2023-06-26T10:26:27;28.00;99.90
7814;DHT22;3952;48.364;16.022;2023-06-26T10:28:56;28.10;99.90
7814;DHT22;3952;48.364;16.022;2023-06-26T10:31:26;28.20;99.90
7814;DHT22;3952;48.364;16.022;2023-06-26T10:33:56;28.30;99.90
7814;DHT22;3952;48.364;16.022;2023-06-26T10:36:29;28.40;99.90
7814;DHT22;3952;48.364;16.022;2023-06-26T10:38:58;28.50;99.90
7814;DHT22;3952;48.364;16.022;2023-06-26T10:41:25;28.50;99.90
7814;DHT22;3952;48.364;16.022;2023-06-26T10:44:07;28.50;99.90
7814;DHT22;3952;48.364;16.022;2023-06-26T10:46:49;28.60;99.90
7814;DHT22;3952;48.364;16.022;2023-06-26T10:49:20;28.70;99.90
7814;DHT22;3952;48.364;16.022;2023-06-26T10:51:49;28.70;99.90
7814;DHT22;3952;48.364;16.022;2023-06-26T10:54:17;28.80;99.90
7814;DHT22;3952;48.364;16.022;2023-06-26T10:56:47;28.80;99.90
7814;DHT22;3952;48.364;16.022;2023-06-26T10:59:17;28.80;99.90
7814;DHT22;3952;48.364;16.022;2023-06-26T11:01:45;28.80;99.90
7814;DHT22;3952;48.364;16.022;2023-06-26T11:04:14;28.70;99.90
7814;DHT22;3952;48.364;16.022;2023-06-26T11:06:45;28.70;99.90
7814;DHT22;3952;48.364;16.022;2023-06-26T11:09:17;28.70;99.90
7814;DHT22;3952;48.364;16.022;2023-06-26T11:11:58;28.70;99.90
7814;DHT22;3952;48.364;16.022;2023-06-26T11:14:27;28.70;99.90
7814;DHT22;3952;48.364;16.022;2023-06-26T11:16:58;28.80;99.90
7814;DHT22;3952;48.364;16.022;2023-06-26T11:19:26;28.90;99.90
7814;DHT22;3952;48.364;16.022;2023-06-26T11:22:06;29.10;99.90
7814;DHT22;3952;48.364;16.022;2023-06-26T11:24:33;29.10;99.90
7814;DHT22;3952;48.364;16.022;2023-06-26T11:27:02;29.00;99.90
7814;DHT22;3952;48.364;16.022;2023-06-26T11:29:31;28.90;99.90
7814;DHT22;3952;48.364;16.022;2023-06-26T11:32:00;28.90;99.90
7814;DHT22;3952;48.364;16.022;2023-06-26T11:34:30;29.00;99.90
7814;DHT22;3952;48.364;16.022;2023-06-26T11:36:58;28.80;99.90
7814;DHT22;3952;48.364;16.022;2023-06-26T11:39:28;28.50;99.90
7814;DHT22;3952;48.364;16.022;2023-06-26T11:41:56;28.20;99.90
7814;DHT22;3952;48.364;16.022;2023-06-26T11:44:23;28.20;99.90
7814;DHT22;3952;48.364;16.022;2023-06-26T11:46:54;28.20;99.90
7814;DHT22;3952;48.364;16.022;2023-06-26T11:49:23;28.40;99.90
7814;DHT22;3952;48.364;16.022;2023-06-26T11:51:52;28.60;99.90
7814;DHT22;3952;48.364;16.022;2023-06-26T11:54:25;28.70;99.90
7814;DHT22;3952;48.364;16.022;2023-06-26T11:56:58;28.90;99.90
7814;DHT22;3952;48.364;16.022;2023-06-26T11:59:34;28.90;99.90
7814;DHT22;3952;48.364;16.022;2023-06-26T12:02:05;28.90;99.90
7814;DHT22;3952;48.364;16.022;2023-06-26T12:04:33;28.80;99.90
7814;DHT22;3952;48.364;16.022;2023-06-26T12:07:01;28.80;99.90
7814;DHT22;3952;48.364;16.022;2023-06-26T12:09:30;28.90;99.90
7814;DHT22;3952;48.364;16.022;2023-06-26T12:12:01;29.00;99.90
7814;DHT22;3952;48.364;16.022;2023-06-26T12:14:29;28.90;99.90
7814;DHT22;3952;48.364;16.022;2023-06-26T12:17:04;29.00;99.90
7814;DHT22;3952;48.364;16.022;2023-06-26T12:19:36;29.20;99.90
7814;DHT22;3952;48.364;16.022;2023-06-26T12:22:07;29.20;99.90
7814;DHT22;3952;48.364;16.022;2023-06-26T12:24:36;29.30;99.90
7814;DHT22;3952;48.364;16.022;2023-06-26T12:27:08;29.30;99.90
7814;DHT22;3952;48.364;16.022;2023-06-26T12:29:37;29.40;99.90
7814;DHT22;3952;48.364;16.022;2023-06-26T12:32:07;29.50;99.90
7814;DHT22;3952;48.364;16.022;2023-06-26T12:34:36;29.60;99.90
7814;DHT22;3952;48.364;16.022;2023-06-26T12:37:07;29.60;99.70
7814;DHT22;3952;48.364;16.022;2023-06-26T12:39:48;29.50;99.90
7814;DHT22;3952;48.364;16.022;2023-06-26T12:42:19;29.50;99.70
7814;DHT22;3952;48.364;16.022;2023-06-26T12:44:47;29.50;98.80
7814;DHT22;3952;48.364;16.022;2023-06-26T12:47:15;29.50;99.00
7814;DHT22;3952;48.364;16.022;2023-06-26T12:49:43;29.50;99.90
7814;DHT22;3952;48.364;16.022;2023-06-26T12:52:12;29.50;99.90
7814;DHT22;3952;48.364;16.022;2023-06-26T12:54:40;29.50;98.90
7814;DHT22;3952;48.364;16.022;2023-06-26T12:57:08;29.50;99.90
7814;DHT22;3952;48.364;16.022;2023-06-26T12:59:37;29.50;99.50
7814;DHT22;3952;48.364;16.022;2023-06-26T13:02:05;29.50;99.80
7814;DHT22;3952;48.364;16.022;2023-06-26T13:04:34;29.60;99.90
7814;DHT22;3952;48.364;16.022;2023-06-26T13:07:01;29.60;99.90
7814;DHT22;3952;48.364;16.022;2023-06-26T13:09:32;29.70;99.90
7814;DHT22;3952;48.364;16.022;2023-06-26T13:12:01;29.60;99.90
7814;DHT22;3952;48.364;16.022;2023-06-26T13:14:29;29.60;99.40
7814;DHT22;3952;48.364;16.022;2023-06-26T13:16:58;29.60;99.90
7814;DHT22;3952;48.364;16.022;2023-06-26T13:19:25;29.60;99.90
7814;DHT22;3952;48.364;16.022;2023-06-26T13:21:52;29.60;99.90
7814;DHT22;3952;48.364;16.022;2023-06-26T13:24:19;29.70;99.90
7814;DHT22;3952;48.364;16.022;2023-06-26T13:26:46;29.70;99.90
7814;DHT22;3952;48.364;16.022;2023-06-26T13:29:13;29.70;99.90
7814;DHT22;3952;48.364;16.022;2023-06-26T13:31:41;29.70;99.90
7814;DHT22;3952;48.364;16.022;2023-06-26T13:34:20;29.70;99.90
7814;DHT22;3952;48.364;16.022;2023-06-26T13:36:48;29.70;99.90
7814;DHT22;3952;48.364;16.022;2023-06-26T13:39:15;29.70;99.90
7814;DHT22;3952;48.364;16.022;2023-06-26T13:41:42;29.70;99.90
7814;DHT22;3952;48.364;16.022;2023-06-26T13:44:09;29.70;99.80
7814;DHT22;3952;48.364;16.022;2023-06-26T13:46:36;29.50;99.10
7814;DHT22;3952;48.364;16.022;2023-06-26T13:49:04;29.40;99.90
7814;DHT22;3952;48.364;16.022;2023-06-26T13:51:32;29.20;99.90
7814;DHT22;3952;48.364;16.022;2023-06-26T13:53:59;29.00;99.30
7814;DHT22;3952;48.364;16.022;2023-06-26T13:56:27;28.90;99.90
7814;DHT22;3952;48.364;16.022;2023-06-26T13:58:56;28.80;99.90
7814;DHT22;3952;48.364;16.022;2023-06-26T14:01:24;28.70;99.90
7814;DHT22;3952;48.364;16.022;2023-06-26T14:03:51;28.80;99.90
7814;DHT22;3952;48.364;16.022;2023-06-26T14:06:18;28.80;99.90
7814;DHT22;3952;48.364;16.022;2023-06-26T14:08:47;28.80;99.90
7814;DHT22;3952;48.364;16.022;2023-06-26T14:11:14;28.80;99.90
7814;DHT22;3952;48.364;16.022;2023-06-26T14:13:42;28.80;99.10
7814;DHT22;3952;48.364;16.022;2023-06-26T14:16:09;28.80;99.90
7814;DHT22;3952;48.364;16.022;2023-06-26T14:18:37;28.90;99.90
7814;DHT22;3952;48.364;16.022;2023-06-26T14:21:04;28.90;99.90
7814;DHT22;3952;48.364;16.022;2023-06-26T14:23:31;29.00;99.90
7814;DHT22;3952;48.364;16.022;2023-06-26T14:26:00;29.00;99.90
7814;DHT22;3952;48.364;16.022;2023-06-26T14:28:27;29.00;99.90
7814;DHT22;3952;48.364;16.022;2023-06-26T14:30:54;29.00;99.70
7814;DHT22;3952;48.364;16.022;2023-06-26T14:33:22;29.00;98.90
7814;DHT22;3952;48.364;16.022;2023-06-26T14:35:49;29.00;99.90
7814;DHT22;3952;48.364;16.022;2023-06-26T14:38:16;29.00;98.50
7814;DHT22;3952;48.364;16.022;2023-06-26T14:40:44;29.00;98.90
7814;DHT22;3952;48.364;16.022;2023-06-26T14:43:12;29.00;99.80
7814;DHT22;3952;48.364;16.022;2023-06-26T14:45:40;29.00;99.90
7814;DHT22;3952;48.364;16.022;2023-06-26T14:48:07;29.10;99.40
7814;DHT22;3952;48.364;16.022;2023-06-26T14:50:34;29.10;98.20
7814;DHT22;3952;48.364;16.022;2023-06-26T14:53:01;29.00;99.40
7814;DHT22;3952;48.364;16.022;2023-06-26T14:55:28;29.00;99.10
7814;DHT22;3952;48.364;16.022;2023-06-26T14:57:55;29.10;99.30
7814;DHT22;3952;48.364;16.022;2023-06-26T15:00:24;29.10;99.30
7814;DHT22;3952;48.364;16.022;2023-06-26T15:02:52;29.10;99.10
7814;DHT22;3952;48.364;16.022;2023-06-26T15:05:20;29.10;98.40
7814;DHT22;3952;48.364;16.022;2023-06-26T15:07:48;29.10;98.80
7814;DHT22;3952;48.364;16.022;2023-06-26T15:10:15;29.10;98.80
7814;DHT22;3952;48.364;16.022;2023-06-26T15:12:42;29.10;99.90
7814;DHT22;3952;48.364;16.022;2023-06-26T15:15:10;29.20;99.80
7814;DHT22;3952;48.364;16.022;2023-06-26T15:17:40;29.20;98.60
7814;DHT22;3952;48.364;16.022;2023-06-26T15:20:07;29.20;98.20
7814;DHT22;3952;48.364;16.022;2023-06-26T15:22:34;29.20;99.30
7814;DHT22;3952;48.364;16.022;2023-06-26T15:25:02;29.20;99.90
7814;DHT22;3952;48.364;16.022;2023-06-26T15:27:29;29.20;99.90
7814;DHT22;3952;48.364;16.022;2023-06-26T15:29:56;29.20;98.50
7814;DHT22;3952;48.364;16.022;2023-06-26T15:32:23;29.20;98.50
7814;DHT22;3952;48.364;16.022;2023-06-26T15:34:52;29.30;98.80
7814;DHT22;3952;48.364;16.022;2023-06-26T15:37:20;29.30;99.10
7814;DHT22;3952;48.364;16.022;2023-06-26T15:39:47;29.30;99.70
7814;DHT22;3952;48.364;16.022;2023-06-26T15:42:14;29.30;98.60
7814;DHT22;3952;48.364;16.022;2023-06-26T15:44:41;29.30;99.20
7814;DHT22;3952;48.364;16.022;2023-06-26T15:47:08;29.30;99.90
7814;DHT22;3952;48.364;16.022;2023-06-26T15:49:35;29.40;99.90
7814;DHT22;3952;48.364;16.022;2023-06-26T15:52:05;29.40;99.90